Grand Meadow, MN (55936)

6:22 AM CDT on March 28, 2017 (GMT -0500)
Steve's Weather Station | | Change Station
Active Advisory: Special Statement

Elev 1296 ft 43.83 °N, 92.61 °W | Updated 4 seconds ago

Clear
Clear
33.3 °F
Feels Like 33 °F
N
0.0
Wind Variable Wind from South

Today
High -- | Low -- °F
--% Chance of Precip.
Yesterday
High -- | Low -- °F
Precip. -- in
Pressure 30.08 in
Visibility 4.0 miles
Clouds Clear
Windchill 33 °F
Dew Point 33 °F
Humidity 99%
Rainfall 0.00 in
Snow Depth Not available.
6:58 AM 7:32 PM
New Moon, 0% visible
SPECI KRST 281101Z 00000KT 4SM BR CLR 01/01 A3008 RMK AO2 T00060006
Pressure 30.08 in
Visibility 4.0 miles
Clouds Clear
Windchill 33 °F
Dew Point 33 °F
Humidity 99%
Rainfall 0.00 in
Snow Depth Not available.
6:58 AM 7:32 PM
New Moon, 0% visible
SPECI KRST 281101Z 00000KT 4SM BR CLR 01/01 A3008 RMK AO2 T00060006

Get Your Daily Forecast Email!

Thanks for signing up!

Be on the lookout for a verification email in your inbox.

You'll start receiving severe weather alerts in your inbox..

×

10-Day Weather Forecast

Almanac

Astronomy

Mar. 28, 2017 Rise Set
Actual Time
Civil Twilight
Nautical Twilight
Astronomical Twilight
Moon
Length of Visible Light
Length of Day
Tomorrow will be .
, % of the Moon is Illuminated

Today's Extremes

State Highs State Lows

Community

WunderPhotos

Upload Photos

1,962,540 photos uploaded!

WunderBlog® & News

Nearby

Air Quality

  Air Quality AQ Index Pollutant
Not available.

Snow Depth

Station Depth Elevation

Earthquake Activity

City Distance Mag. Time & Date
Minimum magnitude displayed is 2.5.

Earthquake Activity

City Distance Mag. Time & Date
Minimum magnitude displayed is 2.5.

Coastal Water Temperatures

Place Temperature

Stations

Nearby Weather Stations

Station Location Temp. Windchill Dew Point Humidity Wind Precip. Elev Updated Type
                   

Watches & Warnings

Special Statement
Issued: 6:17 AM CDT Mar. 28, 2017 – National Weather Service

... Areas of fog... locally dense...

Fog has developed across the area this morning, becoming thick at
some locations - reducing visibilities to 1/2 mile.

Morning commuters should be prepared for sudden reductions in
visibility, especially near river valleys and other low lying
areas. Slow down.

Look for the fog to lift and visibilities to improve by late
morning.


Rieck


617 am CDT Tue Mar 28 2017

... Areas of fog... locally dense...

Fog has developed across the area this morning, becoming thick at
some locations - reducing visibilities to 1/2 mile.

Morning commuters should be prepared for sudden reductions in
visibility, especially near river valleys and other low lying
areas. Slow down.

Look for the fog to lift and visibilities to improve by late
morning.


Rieck